Terminal Aerodrome Forecast
Issued by NWS

Home | Current Version | Previous Version | Text Only | Print | Product List | Glossary On
Versions: 1 2 3 4 5 6 7 8 9 10 11 12
000
FTUS46 KMTR 272300
TAFMRY
TAF
KMRY 272332Z 2800/2824 25004KT P6SM SKC
     FM280300 10003KT P6SM SCT150
     FM282100 30004KT P6SM SCT150=

USA.gov is the U.S. government's official web portal to all federal, state and local government web resources and services.